sensor_id;sensor_type;location;lat;lon;timestamp;pressure;altitude;pressure_sealevel;temperature;humidity
63535;BME280;55128;50.230;18.944;2022-12-07T00:51:19;97953.31;;;3.32;77.41
63535;BME280;55128;50.230;18.944;2022-12-07T00:56:26;97947.81;;;3.41;77.33
63535;BME280;55128;50.230;18.944;2022-12-07T01:01:58;97949.63;;;3.39;77.65
63535;BME280;55128;50.230;18.944;2022-12-07T01:07:14;97935.50;;;3.43;77.49
63535;BME280;55128;50.230;18.944;2022-12-07T01:12:31;97939.34;;;3.31;78.18
63535;BME280;55128;50.230;18.944;2022-12-07T01:17:53;97935.13;;;3.26;78.65
63535;BME280;55128;50.230;18.944;2022-12-07T01:22:56;97926.19;;;3.33;78.59
63535;BME280;55128;50.230;18.944;2022-12-07T01:28:09;97924.38;;;3.35;78.50
63535;BME280;55128;50.230;18.944;2022-12-07T01:33:51;97917.13;;;3.43;78.51
63535;BME280;55128;50.230;18.944;2022-12-07T01:39:41;97926.72;;;3.46;78.12
63535;BME280;55128;50.230;18.944;2022-12-07T01:45:41;97922.66;;;3.64;77.98
63535;BME280;55128;50.230;18.944;2022-12-07T01:50:51;97916.66;;;3.60;77.76
63535;BME280;55128;50.230;18.944;2022-12-07T01:56:41;97914.03;;;3.60;77.79
63535;BME280;55128;50.230;18.944;2022-12-07T02:02:18;97918.72;;;3.49;78.37
63535;BME280;55128;50.230;18.944;2022-12-07T02:07:47;97912.44;;;3.55;78.15
63535;BME280;55128;50.230;18.944;2022-12-07T02:14:00;97912.41;;;3.56;78.07
63535;BME280;55128;50.230;18.944;2022-12-07T02:20:39;97911.34;;;3.62;78.06
63535;BME280;55128;50.230;18.944;2022-12-07T02:32:57;97915.94;;;3.55;78.02
63535;BME280;55128;50.230;18.944;2022-12-07T02:39:19;97922.75;;;3.62;78.22
63535;BME280;55128;50.230;18.944;2022-12-07T02:45:17;97913.94;;;3.63;78.11
63535;BME280;55128;50.230;18.944;2022-12-07T02:51:17;97910.84;;;3.49;78.51
63535;BME280;55128;50.230;18.944;2022-12-07T03:03:41;97908.38;;;3.44;78.75
63535;BME280;55128;50.230;18.944;2022-12-07T03:09:52;97903.44;;;3.34;79.08
63535;BME280;55128;50.230;18.944;2022-12-07T03:22:07;97898.78;;;3.43;78.62
63535;BME280;55128;50.230;18.944;2022-12-07T03:27:58;97893.69;;;3.39;78.60
63535;BME280;55128;50.230;18.944;2022-12-07T03:39:23;97892.00;;;3.36;79.05
63535;BME280;55128;50.230;18.944;2022-12-07T03:44:37;97896.34;;;3.37;78.84
63535;BME280;55128;50.230;18.944;2022-12-07T03:55:47;97892.91;;;3.35;78.80
63535;BME280;55128;50.230;18.944;2022-12-07T04:00:52;97890.25;;;3.37;78.86
63535;BME280;55128;50.230;18.944;2022-12-07T04:05:58;97888.59;;;3.34;78.35
63535;BME280;55128;50.230;18.944;2022-12-07T04:11:05;97882.44;;;3.34;78.46
63535;BME280;55128;50.230;18.944;2022-12-07T04:16:05;97891.25;;;3.33;78.19
63535;BME280;55128;50.230;18.944;2022-12-07T04:21:06;97887.69;;;3.34;77.86
63535;BME280;55128;50.230;18.944;2022-12-07T04:26:06;97884.25;;;3.31;77.65
63535;BME280;55128;50.230;18.944;2022-12-07T04:31:13;97889.00;;;3.19;78.20
63535;BME280;55128;50.230;18.944;2022-12-07T05:20:57;97890.59;;;2.93;78.71
63535;BME280;55128;50.230;18.944;2022-12-07T05:26:25;97899.34;;;2.92;79.16
63535;BME280;55128;50.230;18.944;2022-12-07T05:31:33;97898.50;;;2.91;78.85
63535;BME280;55128;50.230;18.944;2022-12-07T05:36:39;97903.78;;;2.90;79.08
63535;BME280;55128;50.230;18.944;2022-12-07T05:42:09;97898.81;;;3.12;78.55
63535;BME280;55128;50.230;18.944;2022-12-07T05:47:17;97896.47;;;3.01;78.98
63535;BME280;55128;50.230;18.944;2022-12-07T05:52:23;97888.06;;;3.21;78.74
63535;BME280;55128;50.230;18.944;2022-12-07T05:57:26;97901.19;;;3.21;77.82
63535;BME280;55128;50.230;18.944;2022-12-07T06:19:26;97908.41;;;3.11;77.71
63535;BME280;55128;50.230;18.944;2022-12-07T06:24:30;97911.94;;;2.78;79.02
63535;BME280;55128;50.230;18.944;2022-12-07T06:29:32;97915.09;;;2.90;78.89
63535;BME280;55128;50.230;18.944;2022-12-07T06:34:33;97922.91;;;2.94;78.75
63535;BME280;55128;50.230;18.944;2022-12-07T06:39:33;97931.13;;;2.80;79.51
63535;BME280;55128;50.230;18.944;2022-12-07T06:44:34;97926.91;;;2.74;79.40
63535;BME280;55128;50.230;18.944;2022-12-07T06:49:34;97927.09;;;2.66;79.46
63535;BME280;55128;50.230;18.944;2022-12-07T06:54:34;97925.13;;;2.76;79.33
63535;BME280;55128;50.230;18.944;2022-12-07T06:59:35;97931.66;;;2.58;79.92
63535;BME280;55128;50.230;18.944;2022-12-07T07:04:35;97927.25;;;2.60;79.96
63535;BME280;55128;50.230;18.944;2022-12-07T07:09:37;97925.91;;;2.80;79.50
63535;BME280;55128;50.230;18.944;2022-12-07T07:14:37;97938.41;;;2.68;79.95
63535;BME280;55128;50.230;18.944;2022-12-07T07:19:38;97935.69;;;2.71;79.88
63535;BME280;55128;50.230;18.944;2022-12-07T07:24:38;97942.75;;;2.69;80.44
63535;BME280;55128;50.230;18.944;2022-12-07T07:29:39;97930.34;;;2.76;80.53
63535;BME280;55128;50.230;18.944;2022-12-07T07:34:40;97939.72;;;2.85;79.99
63535;BME280;55128;50.230;18.944;2022-12-07T07:39:40;97932.16;;;2.74;80.50
63535;BME280;55128;50.230;18.944;2022-12-07T07:44:40;97940.72;;;2.81;80.17
63535;BME280;55128;50.230;18.944;2022-12-07T07:49:40;97937.56;;;3.01;79.94
63535;BME280;55128;50.230;18.944;2022-12-07T07:54:41;97934.63;;;3.11;79.75
63535;BME280;55128;50.230;18.944;2022-12-07T07:59:41;97922.19;;;3.20;79.32
63535;BME280;55128;50.230;18.944;2022-12-07T08:04:42;97940.19;;;3.32;79.31
63535;BME280;55128;50.230;18.944;2022-12-07T08:09:42;97928.91;;;3.60;79.48
63535;BME280;55128;50.230;18.944;2022-12-07T08:14:42;97936.94;;;3.55;79.00
63535;BME280;55128;50.230;18.944;2022-12-07T08:19:43;97947.59;;;3.49;78.94
63535;BME280;55128;50.230;18.944;2022-12-07T08:24:43;97949.13;;;3.56;78.97
63535;BME280;55128;50.230;18.944;2022-12-07T08:29:43;97954.84;;;3.70;78.76
63535;BME280;55128;50.230;18.944;2022-12-07T08:34:44;97959.84;;;3.80;78.12
63535;BME280;55128;50.230;18.944;2022-12-07T08:39:44;97960.47;;;3.88;78.45
63535;BME280;55128;50.230;18.944;2022-12-07T08:44:45;97966.78;;;3.81;78.19
63535;BME280;55128;50.230;18.944;2022-12-07T08:49:47;97975.53;;;3.81;78.52
63535;BME280;55128;50.230;18.944;2022-12-07T08:54:49;97983.47;;;3.80;78.63
63535;BME280;55128;50.230;18.944;2022-12-07T08:59:50;97969.09;;;3.92;78.37
63535;BME280;55128;50.230;18.944;2022-12-07T09:04:50;97969.84;;;3.97;78.39
63535;BME280;55128;50.230;18.944;2022-12-07T09:09:50;97964.59;;;3.97;78.14
63535;BME280;55128;50.230;18.944;2022-12-07T09:14:51;97960.84;;;4.05;78.04
63535;BME280;55128;50.230;18.944;2022-12-07T09:19:51;97958.66;;;4.18;77.66
63535;BME280;55128;50.230;18.944;2022-12-07T09:24:54;97952.31;;;4.25;76.88
63535;BME280;55128;50.230;18.944;2022-12-07T09:29:55;97943.78;;;4.19;78.17
63535;BME280;55128;50.230;18.944;2022-12-07T09:34:56;97940.16;;;4.50;77.03
63535;BME280;55128;50.230;18.944;2022-12-07T09:39:56;97936.78;;;4.46;76.94
63535;BME280;55128;50.230;18.944;2022-12-07T09:44:58;97929.91;;;4.42;77.54
63535;BME280;55128;50.230;18.944;2022-12-07T09:50:10;97921.50;;;4.31;77.53
63535;BME280;55128;50.230;18.944;2022-12-07T09:55:14;97918.53;;;4.41;77.86
63535;BME280;55128;50.230;18.944;2022-12-07T10:00:20;97905.59;;;4.62;77.66
63535;BME280;55128;50.230;18.944;2022-12-07T10:05:41;97904.97;;;5.05;76.05
63535;BME280;55128;50.230;18.944;2022-12-07T10:10:43;97894.88;;;4.93;76.64
63535;BME280;55128;50.230;18.944;2022-12-07T10:15:52;97880.63;;;5.24;77.03
63535;BME280;55128;50.230;18.944;2022-12-07T10:21:20;97885.22;;;5.42;74.55
63535;BME280;55128;50.230;18.944;2022-12-07T10:42:20;97863.44;;;5.84;73.67
63535;BME280;55128;50.230;18.944;2022-12-07T10:47:28;97865.47;;;5.54;73.64
63535;BME280;55128;50.230;18.944;2022-12-07T10:52:36;97865.41;;;5.32;74.14
63535;BME280;55128;50.230;18.944;2022-12-07T11:24:13;97846.16;;;5.06;75.42
63535;BME280;55128;50.230;18.944;2022-12-07T11:34:45;97831.56;;;4.99;73.86
63535;BME280;55128;50.230;18.944;2022-12-07T11:39:51;97823.09;;;5.15;73.25
63535;BME280;55128;50.230;18.944;2022-12-07T11:44:53;97819.06;;;5.04;73.26
63535;BME280;55128;50.230;18.944;2022-12-07T11:50:05;97809.81;;;5.18;73.91
63535;BME280;55128;50.230;18.944;2022-12-07T11:55:21;97806.06;;;5.47;72.16
63535;BME280;55128;50.230;18.944;2022-12-07T12:00:24;97811.22;;;5.72;72.34
63535;BME280;55128;50.230;18.944;2022-12-07T12:05:25;97816.56;;;5.49;72.43
63535;BME280;55128;50.230;18.944;2022-12-07T12:20:57;97825.41;;;5.46;70.83
63535;BME280;55128;50.230;18.944;2022-12-07T12:26:03;97818.97;;;5.31;71.94
63535;BME280;55128;50.230;18.944;2022-12-07T12:31:24;97817.81;;;5.38;71.66
63535;BME280;55128;50.230;18.944;2022-12-07T12:46:56;97799.19;;;5.21;71.04
63535;BME280;55128;50.230;18.944;2022-12-07T12:57:31;97795.59;;;5.00;70.91
63535;BME280;55128;50.230;18.944;2022-12-07T13:02:49;97802.19;;;5.10;70.85
63535;BME280;55128;50.230;18.944;2022-12-07T13:07:59;97792.56;;;5.11;70.43
63535;BME280;55128;50.230;18.944;2022-12-07T13:23:29;97806.94;;;5.00;69.49
63535;BME280;55128;50.230;18.944;2022-12-07T13:28:36;97804.41;;;4.97;69.36
63535;BME280;55128;50.230;18.944;2022-12-07T13:33:38;97810.06;;;4.88;68.30
63535;BME280;55128;50.230;18.944;2022-12-07T13:38:39;97810.50;;;4.99;68.21
63535;BME280;55128;50.230;18.944;2022-12-07T13:48:53;97814.47;;;4.86;68.16
63535;BME280;55128;50.230;18.944;2022-12-07T13:54:00;97819.72;;;4.86;68.75
63535;BME280;55128;50.230;18.944;2022-12-07T13:59:01;97822.13;;;4.68;68.99
63535;BME280;55128;50.230;18.944;2022-12-07T14:09:30;97824.91;;;4.64;67.18
63535;BME280;55128;50.230;18.944;2022-12-07T14:14:31;97832.63;;;4.68;67.86
63535;BME280;55128;50.230;18.944;2022-12-07T14:19:50;97833.00;;;4.58;68.37
63535;BME280;55128;50.230;18.944;2022-12-07T14:25:09;97834.16;;;4.51;68.02
63535;BME280;55128;50.230;18.944;2022-12-07T14:30:16;97845.72;;;4.45;67.14
63535;BME280;55128;50.230;18.944;2022-12-07T14:35:18;97842.25;;;4.70;67.56
63535;BME280;55128;50.230;18.944;2022-12-07T14:40:24;97847.88;;;4.59;67.20
63535;BME280;55128;50.230;18.944;2022-12-07T14:45:24;97857.63;;;4.55;66.47
63535;BME280;55128;50.230;18.944;2022-12-07T14:50:25;97851.13;;;4.40;67.07
63535;BME280;55128;50.230;18.944;2022-12-07T14:55:30;97851.78;;;4.47;67.68
63535;BME280;55128;50.230;18.944;2022-12-07T15:00:30;97857.69;;;4.54;66.76
63535;BME280;55128;50.230;18.944;2022-12-07T15:05:32;97863.69;;;4.57;66.90
63535;BME280;55128;50.230;18.944;2022-12-07T15:10:33;97863.94;;;4.50;67.41
63535;BME280;55128;50.230;18.944;2022-12-07T15:15:34;97866.53;;;4.51;67.63
63535;BME280;55128;50.230;18.944;2022-12-07T15:20:34;97870.19;;;4.47;68.07
63535;BME280;55128;50.230;18.944;2022-12-07T15:25:34;97869.28;;;4.46;67.75
63535;BME280;55128;50.230;18.944;2022-12-07T15:30:40;97856.63;;;4.33;66.86
63535;BME280;55128;50.230;18.944;2022-12-07T15:35:44;97864.97;;;4.19;66.84
63535;BME280;55128;50.230;18.944;2022-12-07T15:40:47;97872.44;;;4.04;67.92
63535;BME280;55128;50.230;18.944;2022-12-07T15:45:49;97873.84;;;4.15;67.64
63535;BME280;55128;50.230;18.944;2022-12-07T15:50:50;97868.84;;;4.07;67.65
63535;BME280;55128;50.230;18.944;2022-12-07T15:55:50;97865.78;;;3.94;67.84
63535;BME280;55128;50.230;18.944;2022-12-07T16:00:51;97868.19;;;4.00;67.88
63535;BME280;55128;50.230;18.944;2022-12-07T16:05:52;97872.66;;;3.70;68.21
63535;BME280;55128;50.230;18.944;2022-12-07T16:10:53;97875.38;;;3.65;68.51
63535;BME280;55128;50.230;18.944;2022-12-07T16:15:53;97873.72;;;3.63;68.82
63535;BME280;55128;50.230;18.944;2022-12-07T16:20:55;97877.72;;;3.46;68.77
63535;BME280;55128;50.230;18.944;2022-12-07T16:31:33;97882.75;;;3.23;69.32
63535;BME280;55128;50.230;18.944;2022-12-07T16:36:33;97875.72;;;3.25;69.73
63535;BME280;55128;50.230;18.944;2022-12-07T16:41:34;97874.31;;;3.11;70.01
63535;BME280;55128;50.230;18.944;2022-12-07T16:46:35;97886.38;;;2.87;70.47
63535;BME280;55128;50.230;18.944;2022-12-07T16:51:36;97886.72;;;3.06;70.77
63535;BME280;55128;50.230;18.944;2022-12-07T16:56:37;97883.94;;;3.13;71.14
63535;BME280;55128;50.230;18.944;2022-12-07T17:01:37;97879.00;;;3.31;69.88
63535;BME280;55128;50.230;18.944;2022-12-07T17:06:38;97883.03;;;3.14;70.81
63535;BME280;55128;50.230;18.944;2022-12-07T17:11:38;97881.78;;;3.27;70.70
63535;BME280;55128;50.230;18.944;2022-12-07T17:16:38;97880.22;;;3.20;70.72
63535;BME280;55128;50.230;18.944;2022-12-07T17:21:39;97872.09;;;3.29;70.46
63535;BME280;55128;50.230;18.944;2022-12-07T17:26:40;97883.34;;;3.34;70.36
63535;BME280;55128;50.230;18.944;2022-12-07T17:31:41;97881.44;;;3.38;70.25
63535;BME280;55128;50.230;18.944;2022-12-07T17:36:42;97886.09;;;3.28;70.38
63535;BME280;55128;50.230;18.944;2022-12-07T17:41:42;97875.31;;;3.39;70.21
63535;BME280;55128;50.230;18.944;2022-12-07T17:47:01;97873.94;;;3.25;70.34
63535;BME280;55128;50.230;18.944;2022-12-07T17:52:03;97871.19;;;3.30;70.00
63535;BME280;55128;50.230;18.944;2022-12-07T17:57:22;97870.34;;;3.29;70.52
63535;BME280;55128;50.230;18.944;2022-12-07T18:02:22;97877.69;;;3.17;70.96
63535;BME280;55128;50.230;18.944;2022-12-07T18:07:23;97877.44;;;3.26;70.39
63535;BME280;55128;50.230;18.944;2022-12-07T18:12:23;97880.97;;;3.25;70.69
63535;BME280;55128;50.230;18.944;2022-12-07T18:17:23;97890.22;;;3.07;71.10
63535;BME280;55128;50.230;18.944;2022-12-07T18:22:24;97875.28;;;3.40;70.00
63535;BME280;55128;50.230;18.944;2022-12-07T18:27:24;97880.50;;;3.10;70.92
63535;BME280;55128;50.230;18.944;2022-12-07T18:32:24;97867.91;;;3.23;71.03
63535;BME280;55128;50.230;18.944;2022-12-07T18:37:25;97872.97;;;3.29;71.13
63535;BME280;55128;50.230;18.944;2022-12-07T18:42:26;97861.50;;;3.32;70.93
63535;BME280;55128;50.230;18.944;2022-12-07T18:47:26;97872.91;;;3.31;71.05
63535;BME280;55128;50.230;18.944;2022-12-07T18:52:27;97872.78;;;3.36;70.65
63535;BME280;55128;50.230;18.944;2022-12-07T18:57:30;97875.34;;;3.37;70.78
63535;BME280;55128;50.230;18.944;2022-12-07T19:02:31;97874.63;;;3.32;71.27
63535;BME280;55128;50.230;18.944;2022-12-07T19:07:31;97878.13;;;3.33;71.12
63535;BME280;55128;50.230;18.944;2022-12-07T19:12:31;97881.63;;;3.31;71.22
63535;BME280;55128;50.230;18.944;2022-12-07T19:17:32;97876.53;;;3.27;71.56
63535;BME280;55128;50.230;18.944;2022-12-07T19:22:33;97880.56;;;3.39;70.45
63535;BME280;55128;50.230;18.944;2022-12-07T19:27:33;97876.50;;;3.28;70.88
63535;BME280;55128;50.230;18.944;2022-12-07T19:32:33;97874.59;;;3.34;70.48
63535;BME280;55128;50.230;18.944;2022-12-07T19:37:34;97880.06;;;3.26;71.12
63535;BME280;55128;50.230;18.944;2022-12-07T19:42:34;97883.34;;;3.34;71.16
63535;BME280;55128;50.230;18.944;2022-12-07T19:47:35;97894.25;;;3.48;70.99
63535;BME280;55128;50.230;18.944;2022-12-07T19:52:35;97905.84;;;3.41;71.32
63535;BME280;55128;50.230;18.944;2022-12-07T19:57:35;97908.47;;;3.41;72.16
63535;BME280;55128;50.230;18.944;2022-12-07T20:02:36;97914.69;;;3.37;72.48
63535;BME280;55128;50.230;18.944;2022-12-07T20:07:36;97918.94;;;3.41;73.23
63535;BME280;55128;50.230;18.944;2022-12-07T20:12:38;97918.84;;;3.46;73.28
63535;BME280;55128;50.230;18.944;2022-12-07T20:17:57;97921.16;;;3.57;73.34
63535;BME280;55128;50.230;18.944;2022-12-07T20:22:57;97927.75;;;3.40;74.19
63535;BME280;55128;50.230;18.944;2022-12-07T20:27:57;97915.63;;;3.36;74.98
63535;BME280;55128;50.230;18.944;2022-12-07T20:32:57;97915.94;;;3.55;74.03
63535;BME280;55128;50.230;18.944;2022-12-07T20:37:58;97918.56;;;3.55;75.09
63535;BME280;55128;50.230;18.944;2022-12-07T20:42:58;97918.41;;;3.60;75.20
63535;BME280;55128;50.230;18.944;2022-12-07T20:47:58;97926.34;;;3.58;74.97
63535;BME280;55128;50.230;18.944;2022-12-07T20:52:59;97922.50;;;3.70;74.76
63535;BME280;55128;50.230;18.944;2022-12-07T20:57:59;97917.06;;;3.76;74.74
63535;BME280;55128;50.230;18.944;2022-12-07T21:03:00;97915.06;;;3.55;74.73
63535;BME280;55128;50.230;18.944;2022-12-07T21:08:01;97908.56;;;3.68;74.58
63535;BME280;55128;50.230;18.944;2022-12-07T21:13:01;97912.16;;;3.64;74.29
63535;BME280;55128;50.230;18.944;2022-12-07T21:18:01;97904.97;;;3.41;74.29
63535;BME280;55128;50.230;18.944;2022-12-07T21:23:02;97911.00;;;3.44;74.19
63535;BME280;55128;50.230;18.944;2022-12-07T21:28:02;97913.31;;;3.55;74.58
63535;BME280;55128;50.230;18.944;2022-12-07T21:33:03;97915.69;;;3.64;73.91
63535;BME280;55128;50.230;18.944;2022-12-07T21:38:03;97914.75;;;3.65;73.29
63535;BME280;55128;50.230;18.944;2022-12-07T21:43:03;97917.97;;;3.45;73.32
63535;BME280;55128;50.230;18.944;2022-12-07T21:48:04;97913.47;;;3.49;73.51
63535;BME280;55128;50.230;18.944;2022-12-07T21:53:04;97915.50;;;3.39;73.02
63535;BME280;55128;50.230;18.944;2022-12-07T21:58:05;97921.78;;;3.34;73.45
63535;BME280;55128;50.230;18.944;2022-12-07T22:03:05;97920.16;;;3.29;73.05
63535;BME280;55128;50.230;18.944;2022-12-07T22:08:06;97928.97;;;3.28;72.81
63535;BME280;55128;50.230;18.944;2022-12-07T22:13:07;97929.88;;;3.26;72.88
63535;BME280;55128;50.230;18.944;2022-12-07T22:18:08;97935.31;;;3.20;72.89
63535;BME280;55128;50.230;18.944;2022-12-07T22:23:09;97936.50;;;3.08;72.98
63535;BME280;55128;50.230;18.944;2022-12-07T22:28:09;97926.66;;;3.16;72.39
63535;BME280;55128;50.230;18.944;2022-12-07T22:33:09;97931.94;;;3.15;71.90
63535;BME280;55128;50.230;18.944;2022-12-07T22:38:10;97929.66;;;3.02;71.72
63535;BME280;55128;50.230;18.944;2022-12-07T22:43:11;97928.09;;;2.95;72.30
63535;BME280;55128;50.230;18.944;2022-12-07T22:48:11;97934.34;;;2.91;72.63
63535;BME280;55128;50.230;18.944;2022-12-07T22:53:12;97928.00;;;2.98;72.03
63535;BME280;55128;50.230;18.944;2022-12-07T22:58:12;97927.38;;;2.90;72.36
63535;BME280;55128;50.230;18.944;2022-12-07T23:03:13;97932.97;;;3.09;72.24
63535;BME280;55128;50.230;18.944;2022-12-07T23:08:15;97927.69;;;3.10;72.35
63535;BME280;55128;50.230;18.944;2022-12-07T23:13:16;97932.69;;;3.20;71.94
63535;BME280;55128;50.230;18.944;2022-12-07T23:18:32;97919.38;;;3.26;72.04
63535;BME280;55128;50.230;18.944;2022-12-07T23:23:33;97918.75;;;3.18;72.01
63535;BME280;55128;50.230;18.944;2022-12-07T23:28:34;97912.69;;;3.16;71.74
63535;BME280;55128;50.230;18.944;2022-12-07T23:33:35;97915.19;;;3.20;71.61
63535;BME280;55128;50.230;18.944;2022-12-07T23:38:36;97915.44;;;3.11;71.94
63535;BME280;55128;50.230;18.944;2022-12-07T23:43:37;97921.38;;;3.18;71.57
63535;BME280;55128;50.230;18.944;2022-12-07T23:48:38;97912.72;;;3.14;72.59
63535;BME280;55128;50.230;18.944;2022-12-07T23:53:41;97919.06;;;3.05;72.30
63535;BME280;55128;50.230;18.944;2022-12-07T23:58:42;97920.50;;;3.17;72.00
